createdAt,value
2023-03-24T00:00:35.877Z,8.68
2023-03-24T00:03:04.000Z,8.64
2023-03-24T00:05:32.198Z,8.63
2023-03-24T00:08:02.619Z,8.60
2023-03-24T00:10:34.946Z,8.61
2023-03-24T00:13:03.569Z,8.59
2023-03-24T00:15:31.712Z,8.60
2023-03-24T00:17:59.932Z,8.61
2023-03-24T00:20:29.469Z,8.58
2023-03-24T00:22:59.103Z,8.56
2023-03-24T00:25:33.974Z,8.47
2023-03-24T00:28:03.068Z,8.46
2023-03-24T00:30:31.668Z,8.43
2023-03-24T00:33:01.956Z,8.35
2023-03-24T00:35:30.673Z,8.34
2023-03-24T00:37:58.835Z,8.30
2023-03-24T00:40:28.790Z,8.28
2023-03-24T00:42:56.922Z,8.28
2023-03-24T00:45:25.005Z,8.24
2023-03-24T00:47:54.901Z,8.22
2023-03-24T00:50:27.172Z,8.22
2023-03-24T00:52:58.411Z,8.17
2023-03-24T00:55:28.748Z,8.19
2023-03-24T00:57:57.373Z,8.18
2023-03-24T01:00:27.553Z,8.17
2023-03-24T01:02:57.395Z,8.11
2023-03-24T01:05:28.101Z,8.11
2023-03-24T01:07:58.152Z,8.07
2023-03-24T01:10:28.174Z,8.05
2023-03-24T01:12:58.197Z,8.04
2023-03-24T01:15:29.521Z,8.00
2023-03-24T01:17:58.450Z,7.99
2023-03-24T01:20:26.769Z,8.01
2023-03-24T01:22:54.904Z,8.01
2023-03-24T01:25:25.721Z,7.95
2023-03-24T01:27:55.259Z,7.95
2023-03-24T01:30:25.761Z,7.95
2023-03-24T01:32:54.680Z,7.91
2023-03-24T01:35:28.475Z,7.94
2023-03-24T01:37:57.706Z,7.92
2023-03-24T01:40:28.691Z,7.89
2023-03-24T01:42:59.402Z,7.87
2023-03-24T01:45:52.755Z,7.87
2023-03-24T01:48:25.265Z,7.84
2023-03-24T01:50:57.544Z,7.80
2023-03-24T01:53:26.775Z,7.77
2023-03-24T01:55:56.182Z,7.78
2023-03-24T01:58:33.185Z,7.79
2023-03-24T02:01:13.771Z,7.75
2023-03-24T02:04:12.204Z,7.75
2023-03-24T02:06:44.151Z,7.79
2023-03-24T02:09:15.082Z,7.70
2023-03-24T02:11:44.244Z,7.65
2023-03-24T02:14:14.624Z,7.63
2023-03-24T02:16:55.489Z,7.58
2023-03-24T02:19:59.196Z,7.59
2023-03-24T02:22:54.186Z,7.54
2023-03-24T02:26:05.416Z,7.50
2023-03-24T02:28:45.282Z,7.48
2023-03-24T02:31:42.504Z,7.47
2023-03-24T02:34:46.435Z,7.39
2023-03-24T02:37:46.853Z,7.41
2023-03-24T02:40:28.087Z,7.40
2023-03-24T02:43:14.337Z,7.32
2023-03-24T02:45:51.729Z,7.36
2023-03-24T02:48:29.973Z,7.31
2023-03-24T02:51:09.628Z,7.27
2023-03-24T02:53:47.757Z,7.25
2023-03-24T02:56:32.730Z,7.28
2023-03-24T02:59:16.801Z,7.31
2023-03-24T03:01:54.348Z,7.33
2023-03-24T03:04:39.890Z,7.31
2023-03-24T03:07:12.901Z,7.29
2023-03-24T03:09:45.168Z,7.30
2023-03-24T03:12:16.289Z,7.36
2023-03-24T03:14:50.362Z,7.38
2023-03-24T03:17:23.778Z,7.40
2023-03-24T03:19:58.192Z,7.40
2023-03-24T03:22:34.080Z,7.41
2023-03-24T03:25:04.641Z,7.35
2023-03-24T03:27:39.315Z,7.37
2023-03-24T03:30:14.731Z,7.39
2023-03-24T03:32:46.222Z,7.41
2023-03-24T03:35:19.279Z,7.41
2023-03-24T03:37:54.261Z,7.39
2023-03-24T03:40:25.824Z,7.41
2023-03-24T03:43:01.878Z,7.40
2023-03-24T03:45:30.193Z,7.44
2023-03-24T03:47:58.509Z,7.45
2023-03-24T03:50:26.799Z,7.40
2023-03-24T03:52:55.856Z,7.40
2023-03-24T03:55:24.015Z,7.38
2023-03-24T03:57:52.279Z,7.32
2023-03-24T04:00:27.453Z,7.29
2023-03-24T04:03:28.521Z,7.34
2023-03-24T04:06:04.226Z,7.39
2023-03-24T04:08:44.627Z,7.39
2023-03-24T04:11:27.530Z,7.41
2023-03-24T04:14:39.067Z,7.40
2023-03-24T04:17:42.823Z,7.44
2023-03-24T04:20:20.076Z,7.45
2023-03-24T04:23:04.428Z,7.32
2023-03-24T04:25:41.025Z,7.29
2023-03-24T04:28:19.865Z,7.27
2023-03-24T04:30:52.404Z,7.34
2023-03-24T04:33:30.395Z,7.36
2023-03-24T04:36:06.904Z,7.38
2023-03-24T04:38:42.781Z,7.40
2023-03-24T04:41:18.086Z,7.44
2023-03-24T04:43:55.443Z,7.43
2023-03-24T04:46:24.809Z,7.48
2023-03-24T04:48:58.489Z,7.50
2023-03-24T04:51:35.592Z,7.55
2023-03-24T04:54:12.313Z,7.56
2023-03-24T04:56:48.540Z,7.57
2023-03-24T04:59:23.880Z,7.56
2023-03-24T05:01:52.546Z,7.55
2023-03-24T05:04:37.151Z,7.52
2023-03-24T05:07:24.093Z,7.52
2023-03-24T05:09:57.502Z,7.53
2023-03-24T05:12:25.736Z,7.52
2023-03-24T05:15:13.286Z,7.51
2023-03-24T05:17:42.996Z,7.52
2023-03-24T05:20:15.241Z,7.53
2023-03-24T05:22:47.183Z,7.55
2023-03-24T05:25:16.044Z,7.54
2023-03-24T05:27:44.405Z,7.57
2023-03-24T05:30:24.942Z,7.65
2023-03-24T05:32:59.480Z,7.73
2023-03-24T05:35:29.074Z,7.79
2023-03-24T05:37:57.513Z,7.86
2023-03-24T05:40:25.644Z,7.92
2023-03-24T05:43:12.385Z,7.98
2023-03-24T05:45:45.450Z,7.99
2023-03-24T05:48:23.540Z,8.10
2023-03-24T05:51:14.978Z,8.25
2023-03-24T05:53:43.444Z,8.35
2023-03-24T05:56:19.960Z,8.48
2023-03-24T05:59:06.846Z,8.61
2023-03-24T06:01:56.986Z,8.88
2023-03-24T06:04:49.424Z,9.02
2023-03-24T06:07:22.262Z,9.15
2023-03-24T06:09:52.685Z,9.28
2023-03-24T06:12:22.946Z,9.41
2023-03-24T06:14:58.327Z,9.56
2023-03-24T06:17:28.717Z,9.73
2023-03-24T06:20:04.403Z,9.87
2023-03-24T06:22:52.325Z,10.12
2023-03-24T06:25:28.867Z,10.28
2023-03-24T06:28:12.356Z,10.33
2023-03-24T06:30:45.095Z,10.45
2023-03-24T06:33:15.248Z,10.51
2023-03-24T06:35:45.238Z,10.65
2023-03-24T06:38:18.236Z,10.75
2023-03-24T06:40:47.077Z,10.94
2023-03-24T06:43:15.959Z,11.03
2023-03-24T06:45:46.332Z,11.08
2023-03-24T06:48:20.031Z,11.18
2023-03-24T06:50:49.099Z,11.32
2023-03-24T06:53:21.828Z,11.32
2023-03-24T06:55:50.845Z,11.46
2023-03-24T06:58:21.547Z,11.52
2023-03-24T07:01:06.049Z,11.77
2023-03-24T07:03:37.046Z,11.71
2023-03-24T07:06:40.253Z,11.93
2023-03-24T07:09:17.779Z,11.80
2023-03-24T07:11:46.565Z,11.92
2023-03-24T07:14:15.768Z,12.05
2023-03-24T07:16:44.502Z,12.20
2023-03-24T07:19:33.687Z,12.55
2023-03-24T07:22:21.263Z,13.02
2023-03-24T07:25:09.984Z,13.32
2023-03-24T07:28:00.977Z,13.64
2023-03-24T07:30:39.878Z,13.76
2023-03-24T07:33:12.377Z,13.99
2023-03-24T07:35:42.835Z,14.06
2023-03-24T07:38:11.363Z,14.18
2023-03-24T07:40:41.087Z,14.32
2023-03-24T07:43:09.289Z,14.24
2023-03-24T07:46:03.823Z,14.04
2023-03-24T07:48:34.392Z,13.91
2023-03-24T07:51:02.548Z,13.91
2023-03-24T07:53:49.199Z,14.01
2023-03-24T07:56:28.228Z,14.06
2023-03-24T07:58:59.111Z,14.19
2023-03-24T08:01:43.023Z,14.53
2023-03-24T08:04:14.727Z,15.12
2023-03-24T08:06:59.883Z,15.23
2023-03-24T08:09:27.965Z,15.19
2023-03-24T08:11:58.991Z,15.29
2023-03-24T08:14:30.746Z,15.82
2023-03-24T08:16:59.046Z,16.29
2023-03-24T08:19:27.597Z,16.51
2023-03-24T08:21:56.050Z,16.65
2023-03-24T08:24:24.184Z,17.15
2023-03-24T08:26:52.770Z,17.59
2023-03-24T08:29:22.289Z,18.09
2023-03-24T08:31:50.391Z,18.73
2023-03-24T08:34:19.262Z,18.84
2023-03-24T08:36:47.471Z,18.46
2023-03-24T08:39:15.522Z,18.35
2023-03-24T08:41:43.660Z,18.40
2023-03-24T08:44:11.819Z,18.82
2023-03-24T08:46:41.566Z,19.34
2023-03-24T08:49:10.265Z,19.77
2023-03-24T08:51:38.341Z,19.62
2023-03-24T08:54:06.578Z,19.46
2023-03-24T08:56:34.700Z,19.36
2023-03-24T08:59:04.645Z,19.63
2023-03-24T09:01:34.118Z,20.45
2023-03-24T09:04:04.067Z,21.68
2023-03-24T09:06:33.025Z,22.25
2023-03-24T09:09:01.154Z,22.95
2023-03-24T09:11:29.307Z,23.89
2023-03-24T09:13:57.539Z,24.41
2023-03-24T09:16:25.784Z,25.10
2023-03-24T09:18:53.968Z,25.70
2023-03-24T09:21:23.432Z,25.84
2023-03-24T09:23:51.493Z,25.58
2023-03-24T09:26:19.669Z,25.63
2023-03-24T09:28:47.793Z,25.23
2023-03-24T09:31:16.108Z,24.96
2023-03-24T09:33:44.169Z,24.86
2023-03-24T09:36:12.898Z,25.10
2023-03-24T09:38:42.426Z,25.01
2023-03-24T09:41:18.003Z,24.93
2023-03-24T09:43:51.155Z,24.16
2023-03-24T09:46:27.836Z,23.66
2023-03-24T09:48:57.783Z,22.52
2023-03-24T09:51:27.651Z,22.08
2023-03-24T09:54:10.108Z,21.73
2023-03-24T09:56:40.871Z,21.74
2023-03-24T09:59:14.844Z,22.20
2023-03-24T10:01:43.106Z,22.70
2023-03-24T10:04:16.623Z,22.93
2023-03-24T10:06:44.876Z,23.72
2023-03-24T10:09:25.441Z,24.69
2023-03-24T10:12:07.354Z,24.91
2023-03-24T10:14:48.074Z,24.68
2023-03-24T10:17:26.912Z,24.02
2023-03-24T10:20:01.075Z,23.86
2023-03-24T10:22:37.753Z,24.02
2023-03-24T10:25:16.130Z,23.75
2023-03-24T10:27:50.102Z,24.27
2023-03-24T10:30:20.845Z,24.75
2023-03-24T10:32:49.251Z,25.71
2023-03-24T10:35:21.022Z,25.79
2023-03-24T10:37:50.014Z,25.88
2023-03-24T10:40:22.677Z,26.44
2023-03-24T10:43:07.193Z,26.61
2023-03-24T10:45:40.728Z,26.63
2023-03-24T10:48:09.588Z,27.59
2023-03-24T10:50:44.174Z,28.96
2023-03-24T10:53:19.804Z,28.87
2023-03-24T10:55:50.929Z,28.47
2023-03-24T10:58:29.301Z,27.70
2023-03-24T11:01:00.126Z,27.04
2023-03-24T11:03:32.312Z,27.42
2023-03-24T11:06:02.123Z,26.79
2023-03-24T11:08:35.742Z,27.02
2023-03-24T11:11:15.154Z,27.44
2023-03-24T11:13:44.002Z,26.81
2023-03-24T11:16:14.872Z,25.83
2023-03-24T11:18:57.887Z,24.66
2023-03-24T11:21:27.600Z,24.76
2023-03-24T11:23:59.150Z,24.42
2023-03-24T11:26:33.831Z,23.87
2023-03-24T11:29:04.796Z,24.23
2023-03-24T11:31:38.369Z,24.01
2023-03-24T11:34:10.706Z,23.75
2023-03-24T11:36:47.378Z,23.48
2023-03-24T11:39:19.528Z,23.15
2023-03-24T11:42:01.784Z,23.02
2023-03-24T11:44:33.812Z,23.27
2023-03-24T11:47:05.756Z,22.93
2023-03-24T11:49:40.558Z,23.23
2023-03-24T11:52:21.747Z,23.15
2023-03-24T11:54:49.893Z,23.06
2023-03-24T11:57:32.646Z,22.86
2023-03-24T12:00:10.975Z,22.75
2023-03-24T12:02:57.786Z,22.56
2023-03-24T12:05:34.446Z,22.73
2023-03-24T12:08:24.853Z,22.54
2023-03-24T12:11:07.955Z,22.32
2023-03-24T12:13:41.089Z,22.70
2023-03-24T12:16:31.125Z,22.55
2023-03-24T12:19:25.704Z,22.49
2023-03-24T12:22:05.833Z,22.54
2023-03-24T12:24:49.212Z,22.28
2023-03-24T12:27:28.544Z,22.17
2023-03-24T12:30:05.607Z,21.92
2023-03-24T12:32:43.221Z,21.89
2023-03-24T12:35:38.281Z,21.84
2023-03-24T12:38:35.940Z,21.94
2023-03-24T12:41:52.670Z,21.92
2023-03-24T12:45:08.485Z,21.81
2023-03-24T12:47:59.439Z,21.83
2023-03-24T12:50:44.549Z,21.32
2023-03-24T12:53:36.998Z,21.11
2023-03-24T12:56:11.280Z,21.12
2023-03-24T12:58:44.688Z,21.16
2023-03-24T13:01:20.620Z,21.14
2023-03-24T13:03:55.508Z,21.02
2023-03-24T13:06:29.332Z,21.04
2023-03-24T13:09:08.175Z,21.03
2023-03-24T13:11:44.947Z,21.09
2023-03-24T13:14:19.289Z,21.02
2023-03-24T13:16:49.343Z,21.01
2023-03-24T13:19:24.615Z,21.03
2023-03-24T13:21:55.006Z,20.98
2023-03-24T13:24:23.848Z,21.00
2023-03-24T13:27:01.816Z,21.08
2023-03-24T13:30:08.768Z,21.09
2023-03-24T13:32:40.206Z,21.02
2023-03-24T13:35:19.533Z,20.99
2023-03-24T13:37:52.293Z,21.10
2023-03-24T13:40:24.554Z,21.24
2023-03-24T13:42:56.289Z,21.40
2023-03-24T13:45:39.094Z,21.67
2023-03-24T13:48:19.748Z,22.06
2023-03-24T13:50:57.616Z,22.27
2023-03-24T13:53:34.510Z,22.62
2023-03-24T13:56:04.990Z,23.06
2023-03-24T13:59:07.975Z,23.49
2023-03-24T14:01:39.206Z,23.75
2023-03-24T14:04:28.279Z,23.64
2023-03-24T14:06:59.005Z,23.62
2023-03-24T14:09:29.442Z,23.27
2023-03-24T14:12:20.773Z,23.01
2023-03-24T14:15:15.666Z,22.73
2023-03-24T14:17:49.012Z,22.63
2023-03-24T14:20:36.146Z,22.63
2023-03-24T14:23:06.090Z,22.56
2023-03-24T14:25:36.899Z,22.45
2023-03-24T14:28:22.482Z,22.19
2023-03-24T14:31:03.494Z,22.17
2023-03-24T14:33:32.025Z,22.13
2023-03-24T14:36:06.480Z,22.14
2023-03-24T14:38:39.239Z,22.06
2023-03-24T14:41:13.923Z,21.89
2023-03-24T14:43:59.128Z,21.95
2023-03-24T14:46:40.073Z,21.82
2023-03-24T14:49:18.603Z,21.65
2023-03-24T14:51:53.934Z,21.63
2023-03-24T14:54:29.950Z,21.69
2023-03-24T14:56:59.712Z,21.58
2023-03-24T14:59:44.728Z,21.67
2023-03-24T15:02:29.362Z,21.67
2023-03-24T15:05:24.986Z,21.62
2023-03-24T15:08:05.649Z,21.55
2023-03-24T15:10:40.360Z,21.44
2023-03-24T15:13:30.288Z,21.52
2023-03-24T15:15:59.297Z,21.80
2023-03-24T15:18:27.745Z,22.21
2023-03-24T15:20:55.885Z,22.70
2023-03-24T15:23:25.923Z,22.93
2023-03-24T15:25:56.426Z,22.94
2023-03-24T15:28:27.498Z,22.95
2023-03-24T15:30:57.336Z,22.93
2023-03-24T15:33:26.144Z,22.68
2023-03-24T15:35:57.696Z,22.49
2023-03-24T15:38:30.285Z,22.31
2023-03-24T15:41:04.174Z,22.15
2023-03-24T15:43:32.372Z,22.01
2023-03-24T15:46:11.765Z,21.99
2023-03-24T15:48:40.436Z,21.84
2023-03-24T15:51:11.755Z,21.77
2023-03-24T15:53:44.234Z,21.65
2023-03-24T15:56:26.607Z,21.62
2023-03-24T15:58:57.113Z,21.39
2023-03-24T16:01:36.162Z,21.43
2023-03-24T16:04:07.122Z,21.43
2023-03-24T16:06:36.843Z,21.31
2023-03-24T16:09:08.760Z,21.11
2023-03-24T16:11:38.276Z,20.93
2023-03-24T16:14:24.070Z,20.91
2023-03-24T16:16:55.482Z,20.82
2023-03-24T16:19:24.363Z,20.59
2023-03-24T16:21:52.454Z,20.53
2023-03-24T16:24:20.840Z,20.43
2023-03-24T16:26:50.397Z,20.35
2023-03-24T16:29:20.336Z,20.35
2023-03-24T16:31:51.494Z,20.29
2023-03-24T16:34:20.972Z,20.16
2023-03-24T16:36:50.630Z,20.04
2023-03-24T16:39:20.327Z,19.88
2023-03-24T16:41:48.501Z,19.67
2023-03-24T16:44:18.337Z,19.55
2023-03-24T16:46:47.505Z,19.50
2023-03-24T16:49:17.837Z,19.47
2023-03-24T16:51:47.083Z,19.38
2023-03-24T16:54:15.644Z,19.34
2023-03-24T16:56:43.991Z,19.26
2023-03-24T16:59:12.601Z,19.17
2023-03-24T17:01:45.378Z,19.06
2023-03-24T17:04:16.560Z,18.98
2023-03-24T17:06:47.185Z,18.89
2023-03-24T17:09:15.835Z,18.81
2023-03-24T17:11:46.627Z,18.69
2023-03-24T17:14:15.584Z,18.51
2023-03-24T17:16:46.671Z,18.42
2023-03-24T17:19:16.744Z,18.29
2023-03-24T17:21:50.529Z,18.11
2023-03-24T17:24:20.983Z,18.02
2023-03-24T17:26:50.234Z,17.90
2023-03-24T17:29:19.336Z,17.90
2023-03-24T17:31:49.446Z,17.78
2023-03-24T17:34:21.608Z,17.67
2023-03-24T17:36:51.864Z,17.58
2023-03-24T17:39:22.663Z,17.41
2023-03-24T17:41:51.831Z,17.28
2023-03-24T17:44:21.608Z,17.24
2023-03-24T17:46:52.704Z,17.12
2023-03-24T17:49:22.091Z,17.04
2023-03-24T17:51:51.486Z,16.94
2023-03-24T17:54:20.989Z,16.91
2023-03-24T17:56:52.010Z,16.89
2023-03-24T17:59:22.252Z,16.79
2023-03-24T18:01:54.864Z,16.80
2023-03-24T18:04:24.337Z,16.76
2023-03-24T18:06:52.894Z,16.69
2023-03-24T18:09:21.982Z,16.62
2023-03-24T18:11:50.614Z,16.53
2023-03-24T18:14:20.070Z,16.48
2023-03-24T18:16:49.598Z,16.55
2023-03-24T18:19:20.545Z,16.55
2023-03-24T18:21:50.204Z,16.61
2023-03-24T18:24:20.248Z,16.53
2023-03-24T18:26:50.550Z,16.53
2023-03-24T18:29:22.141Z,16.58
2023-03-24T18:31:52.014Z,16.58
2023-03-24T18:34:23.258Z,16.53
2023-03-24T18:36:53.369Z,16.54
2023-03-24T18:39:23.110Z,16.58
2023-03-24T18:41:53.643Z,16.55
2023-03-24T18:44:24.185Z,16.45
2023-03-24T18:46:54.852Z,16.38
2023-03-24T18:49:26.105Z,16.42
2023-03-24T18:51:55.416Z,16.34
2023-03-24T18:54:25.647Z,16.32
2023-03-24T18:56:56.437Z,16.23
2023-03-24T18:59:28.481Z,16.17
2023-03-24T19:01:58.663Z,16.07
2023-03-24T19:04:29.500Z,16.00
2023-03-24T19:07:03.266Z,15.98
2023-03-24T19:09:33.107Z,15.97
2023-03-24T19:12:02.325Z,15.90
2023-03-24T19:14:32.326Z,15.85
2023-03-24T19:17:02.999Z,15.87
2023-03-24T19:19:33.848Z,15.80
2023-03-24T19:22:04.152Z,15.73
2023-03-24T19:24:37.727Z,15.66
2023-03-24T19:27:09.000Z,15.65
2023-03-24T19:29:38.246Z,15.57
2023-03-24T19:32:08.575Z,15.50
2023-03-24T19:34:41.589Z,15.44
2023-03-24T19:37:11.994Z,15.39
2023-03-24T19:39:45.791Z,15.32
2023-03-24T19:42:16.806Z,15.33
2023-03-24T19:44:47.632Z,15.25
2023-03-24T19:47:17.682Z,15.07
2023-03-24T19:49:50.100Z,15.03
2023-03-24T19:52:19.119Z,14.99
2023-03-24T19:54:53.113Z,14.99
2023-03-24T19:57:23.791Z,15.03
2023-03-24T19:59:53.448Z,14.91
2023-03-24T20:02:23.193Z,14.88
2023-03-24T20:04:56.655Z,14.82
2023-03-24T20:07:27.694Z,14.81
2023-03-24T20:10:02.210Z,14.73
2023-03-24T20:12:32.423Z,14.65
2023-03-24T20:15:05.978Z,14.61
2023-03-24T20:17:37.972Z,14.57
2023-03-24T20:20:12.321Z,14.54
2023-03-24T20:22:46.484Z,14.59
2023-03-24T20:25:18.722Z,14.52
2023-03-24T20:27:48.988Z,14.46
2023-03-24T20:30:21.004Z,14.48
2023-03-24T20:32:54.167Z,14.43
2023-03-24T20:35:28.761Z,14.42
2023-03-24T20:37:57.979Z,14.38
2023-03-24T20:40:30.770Z,14.41
2023-03-24T20:43:01.637Z,14.39
2023-03-24T20:45:31.537Z,14.36
2023-03-24T20:48:01.655Z,14.36
2023-03-24T20:50:32.971Z,14.36
2023-03-24T20:53:02.869Z,14.34
2023-03-24T20:55:33.155Z,14.37
2023-03-24T20:58:04.145Z,14.34
2023-03-24T21:00:35.257Z,14.32
2023-03-24T21:03:05.052Z,14.24
2023-03-24T21:05:36.902Z,14.23
2023-03-24T21:08:07.500Z,14.22
2023-03-24T21:10:38.772Z,14.20
2023-03-24T21:13:08.811Z,14.22
2023-03-24T21:15:44.350Z,14.22
2023-03-24T21:18:17.736Z,14.25
2023-03-24T21:20:55.562Z,14.23
2023-03-24T21:23:28.584Z,14.23
2023-03-24T21:25:57.876Z,14.29
2023-03-24T21:28:30.869Z,14.27
2023-03-24T21:31:05.353Z,14.27
2023-03-24T21:33:35.120Z,14.24
2023-03-24T21:36:05.895Z,14.28
2023-03-24T21:38:35.325Z,14.26
2023-03-24T21:41:03.639Z,14.26
2023-03-24T21:43:32.167Z,14.26
2023-03-24T21:46:00.843Z,14.23
2023-03-24T21:48:29.471Z,14.19
2023-03-24T21:50:58.809Z,14.13
2023-03-24T21:53:28.561Z,14.09
2023-03-24T21:56:04.476Z,14.04
2023-03-24T21:58:33.594Z,14.01
2023-03-24T22:01:02.302Z,13.99
2023-03-24T22:03:30.707Z,13.88
2023-03-24T22:05:58.911Z,13.83
2023-03-24T22:08:30.735Z,13.90
2023-03-24T22:11:00.013Z,13.73
2023-03-24T22:13:29.438Z,13.69
2023-03-24T22:15:59.360Z,13.60
2023-03-24T22:18:29.710Z,13.48
2023-03-24T22:21:01.019Z,13.39
2023-03-24T22:23:33.262Z,13.33
2023-03-24T22:26:04.034Z,13.26
2023-03-24T22:28:34.575Z,13.11
2023-03-24T22:31:03.473Z,13.14
2023-03-24T22:33:31.706Z,12.91
2023-03-24T22:36:01.525Z,12.84
2023-03-24T22:38:31.664Z,12.72
2023-03-24T22:41:00.647Z,12.65
2023-03-24T22:43:29.725Z,12.46
2023-03-24T22:45:58.266Z,12.44
2023-03-24T22:48:26.676Z,12.36
2023-03-24T22:50:55.086Z,12.28
2023-03-24T22:53:23.253Z,12.14
2023-03-24T22:55:53.198Z,12.22
2023-03-24T22:58:21.691Z,12.08
2023-03-24T23:00:51.493Z,12.12
2023-03-24T23:03:19.598Z,12.08
2023-03-24T23:05:48.170Z,11.73
2023-03-24T23:08:17.094Z,11.65
2023-03-24T23:10:46.355Z,11.61
2023-03-24T23:13:17.022Z,11.53
2023-03-24T23:15:45.389Z,11.47
2023-03-24T23:18:13.564Z,11.42
2023-03-24T23:20:42.882Z,11.37
2023-03-24T23:23:11.926Z,11.35
2023-03-24T23:25:43.167Z,11.32
2023-03-24T23:28:11.640Z,11.36
2023-03-24T23:30:42.208Z,11.32
2023-03-24T23:33:15.090Z,11.30
2023-03-24T23:35:43.463Z,11.29
2023-03-24T23:38:11.601Z,11.21
2023-03-24T23:40:39.961Z,11.23
2023-03-24T23:43:08.094Z,11.14
2023-03-24T23:45:36.418Z,11.04
2023-03-24T23:48:07.356Z,11.02
2023-03-24T23:50:35.600Z,11.03
2023-03-24T23:53:03.826Z,10.94
2023-03-24T23:55:31.952Z,10.88
2023-03-24T23:58:00.104Z,10.89
